CPX328 Details

Departure: Los Angeles International Airport (KLAX)
Arrival: Kansas City International Airport (KMCI) at N/A
Route: ORCKA3 LAS J146 DVC GCK J28 ICT EMP JHAWK6
Notes: METROAIR CARGO SUPPORT


Current Weather Information
KLAX 250415Z 24007KT 10SM SCT007 21/18 A2995 RMK AO2 SCT V BKN T02110183 VISNO RWY24 $
KMCI 250353Z 09005KT 10SM OVC035 21/17 A3004 RMK AO2 SLP165 T02110172